Time;durP1;ratioP1;P1;durP2;ratioP2;P2;SDS_P1;SDS_P2;PMS_P1;PMS_P2;Temp;Humidity;BMP_temperature;BMP_pressure;BME280_temperature;BME280_humidity;BME280_pressure;Samples;Min_cycle;Max_cycle;Signal;HPM_P1;HPM_P2
2023/08/04 00:00:29;;;;;;;53.20;26.35;;;;;;;21.86;82.76;99003.09;4909354;29;20046;-93
2023/08/04 00:02:56;;;;;;;59.38;29.05;;;;;;;21.90;82.69;99018.59;4899656;29;20116;-93
2023/08/04 00:05:22;;;;;;;57.47;29.98;;;;;;;21.60;82.38;98982.00;4888103;29;20066;-93
2023/08/04 00:07:48;;;;;;;59.50;31.88;;;;;;;21.68;81.87;99000.28;4887688;29;20081;-93
2023/08/04 00:10:14;;;;;;;60.17;31.38;;;;;;;21.67;82.72;99009.81;4903662;29;20040;-93
2023/08/04 00:12:40;;;;;;;72.88;32.65;;;;;;;21.34;82.51;98967.22;4897717;29;20055;-93
2023/08/04 00:15:07;;;;;;;59.50;33.35;;;;;;;21.50;82.84;99000.25;4906621;29;20043;-93
2023/08/04 00:17:38;;;;;;;59.95;32.85;;;;;;;21.39;82.86;98993.88;4917745;29;20110;-94
2023/08/04 00:20:08;;;;;;;65.05;32.33;;;;;;;21.46;83.84;99005.03;4909575;29;20035;-93
2023/08/04 00:22:35;;;;;;;57.78;30.95;;;;;;;21.15;83.78;98960.00;4909828;29;20054;-94
2023/08/04 00:25:02;;;;;;;;;;;;;;;21.58;84.05;99024.91;4920472;29;20040;-94
2023/08/04 00:27:29;;;;;;;56.05;28.08;;;;;;;21.09;84.27;98956.84;4888688;29;19994;-93
2023/08/04 00:29:55;;;;;;;43.10;25.30;;;;;;;21.10;83.89;98963.97;4888311;29;20040;-93
2023/08/04 00:32:25;;;;;;;52.33;26.75;;;;;;;21.26;83.90;98985.88;4893724;29;20063;-94
2023/08/04 00:34:54;;;;;;;46.17;25.25;;;;;;;21.06;83.80;98971.53;4897921;29;20055;-93
2023/08/04 00:37:20;;;;;;;45.15;25.67;;;;;;;21.15;84.20;98987.81;4912045;29;20040;-94
2023/08/04 00:39:50;;;;;;;44.20;22.98;;;;;;;20.97;83.90;98962.75;4907946;29;20418;-94
2023/08/04 00:42:26;;;;;;;40.75;24.77;;;;;;;20.93;84.44;98956.38;4908978;29;20506;-93
2023/08/04 00:44:55;;;;;;;41.20;23.35;;;;;;;21.08;84.56;98982.22;4892001;29;20040;-94
2023/08/04 00:47:21;;;;;;;39.45;23.67;;;;;;;21.10;84.72;98991.00;4908393;29;20071;-93
2023/08/04 00:49:55;;;;;;;37.33;23.20;;;;;;;20.97;84.65;98979.41;4908913;29;20040;-92
2023/08/04 00:55:53;;;;;;;38.55;24.25;;;;;;;21.22;84.90;99021.19;4844591;29;20046;-93
2023/08/04 00:58:19;;;;;;;33.92;23.65;;;;;;;21.18;84.55;99022.38;4828943;29;20091;-94
2023/08/04 01:00:46;;;;;;;43.50;23.45;;;;;;;20.84;84.68;98973.41;4843820;29;20585;-92
2023/08/04 01:03:12;;;;;;;40.95;24.05;;;;;;;20.80;84.82;98969.81;4813373;29;20140;-95
2023/08/04 01:05:50;;;;;;;44.00;24.00;;;;;;;20.92;84.90;98995.66;4828422;29;20547;-93
2023/08/04 01:08:25;;;;;;;52.28;22.58;;;;;;;20.77;85.26;98967.03;4845493;29;20054;-94
2023/08/04 01:11:07;;;;;;;46.08;22.73;;;;;;;21.16;85.03;99031.13;4832013;29;20058;-93
2023/08/04 01:13:34;;;;;;;36.40;22.45;;;;;;;21.20;85.41;99037.47;4831148;29;20061;-93
2023/08/04 01:16:05;;;;;;;39.50;23.77;;;;;;;21.04;85.16;99000.88;4830800;29;20054;-94
2023/08/04 01:18:32;;;;;;;36.65;22.88;;;;;;;21.10;85.32;99010.44;4832888;29;20045;-94
2023/08/04 01:21:05;;;;;;;41.92;23.63;;;;;;;21.07;85.49;99008.44;4832277;29;20086;-92
2023/08/04 01:23:33;;;;;;;46.17;24.80;;;;;;;20.78;85.54;98971.41;4831366;29;20053;-95
2023/08/04 01:26:00;;;;;;;45.97;23.42;;;;;;;20.71;85.24;98963.81;4845852;29;20532;-95
2023/08/04 01:28:28;;;;;;;34.08;23.70;;;;;;;20.92;85.32;98992.88;4853016;29;20052;-92
2023/08/04 01:30:56;;;;;;;40.28;23.40;;;;;;;21.16;85.58;99042.25;4851842;29;20542;-92
2023/08/04 01:33:22;;;;;;;34.75;24.63;;;;;;;21.21;86.07;99044.63;4885097;29;20055;-92
2023/08/04 01:35:53;;;;;;;47.47;25.33;;;;;;;20.95;85.63;98989.31;4902575;29;20481;-91
2023/08/04 01:38:19;;;;;;;42.22;24.88;;;;;;;21.00;86.04;98997.31;4909745;29;20045;-93
2023/08/04 01:40:45;;;;;;;38.13;24.38;;;;;;;21.18;86.03;99017.59;4908624;29;20036;-93
2023/08/04 01:43:11;;;;;;;36.17;23.17;;;;;;;20.91;85.81;98969.88;4909261;29;20078;-92
2023/08/04 01:45:38;;;;;;;45.42;25.05;;;;;;;20.93;85.65;98961.94;4916253;29;20122;-92
2023/08/04 01:48:04;;;;;;;45.83;26.70;;;;;;;21.03;85.96;98965.94;4893064;29;20050;-92
2023/08/04 01:50:30;;;;;;;45.72;25.92;;;;;;;21.33;85.83;99002.56;4908019;29;20043;-93
2023/08/04 01:52:56;;;;;;;46.88;25.30;;;;;;;21.06;85.50;98967.94;4908340;29;20525;-93
2023/08/04 01:55:25;;;;;;;49.83;26.63;;;;;;;21.54;85.59;99040.78;4909860;29;20071;-93
2023/08/04 01:57:53;;;;;;;45.55;25.05;;;;;;;21.40;85.54;99020.50;4914266;29;20055;-93
2023/08/04 02:00:19;;;;;;;49.85;25.98;;;;;;;20.93;85.20;98948.06;4928492;29;20043;-93
2023/08/04 02:02:45;;;;;;;51.80;26.50;;;;;;;21.42;85.44;99016.13;4929456;29;20043;-94
2023/08/04 02:05:14;;;;;;;44.83;25.00;;;;;;;21.01;85.41;98954.41;4913383;29;20433;-94
2023/08/04 02:07:41;;;;;;;40.50;24.95;;;;;;;21.30;84.77;98988.66;4902777;29;20046;-93
2023/08/04 02:10:07;;;;;;;37.05;25.00;;;;;;;21.60;84.99;99035.66;4921176;29;20074;-94
2023/08/04 02:12:33;;;;;;;;;;;;;;;21.67;84.94;99043.22;4896424;29;20055;-92
2023/08/04 02:15:00;;;;;;;39.85;24.33;;;;;;;21.18;84.41;98967.56;4928187;29;19929;-93
2023/08/04 02:17:26;;;;;;;;;;;;;;;21.72;84.60;99049.19;4912650;29;20049;-92
2023/08/04 02:19:52;;;;;;;39.38;24.27;;;;;;;21.41;84.75;98991.50;4912262;29;19922;-92
2023/08/04 02:22:18;;;;;;;;;;;;;;;21.78;84.46;99049.59;4890104;29;20103;-92
2023/08/04 02:24:44;;;;;;;36.75;23.30;;;;;;;21.39;84.27;98985.53;4905259;29;19923;-92
2023/08/04 02:27:12;;;;;;;38.47;23.13;;;;;;;21.34;84.25;98973.59;4889009;29;20104;-92
2023/08/04 02:29:40;;;;;;;35.75;22.77;;;;;;;21.57;84.49;99006.63;4896647;29;20070;-93
2023/08/04 02:32:06;;;;;;;35.22;23.42;;;;;;;21.68;84.21;99019.75;4905312;29;20052;-94
2023/08/04 02:34:32;;;;;;;40.38;24.05;;;;;;;21.58;84.04;99007.41;4889589;29;20048;-92
2023/08/04 02:36:58;;;;;;;41.42;24.23;;;;;;;21.56;84.32;99005.03;4904845;29;20047;-91
2023/08/04 02:39:24;;;;;;;42.10;25.30;;;;;;;21.50;84.62;99006.63;4889940;29;20040;-92
2023/08/04 02:41:50;;;;;;;53.10;28.05;;;;;;;21.81;84.56;99057.94;4916941;29;20077;-91
2023/08/04 02:44:16;;;;;;;49.05;28.52;;;;;;;21.65;84.73;99034.44;4912164;29;20090;-91
2023/08/04 02:46:44;;;;;;;57.33;26.85;;;;;;;21.57;84.51;99014.97;4929304;29;20116;-95
2023/08/04 02:49:11;;;;;;;56.72;29.15;;;;;;;21.65;84.30;99014.97;4912272;29;20042;-93
2023/08/04 02:51:37;;;;;;;72.22;26.90;;;;;;;21.58;84.06;98990.72;4904542;29;20046;-93
2023/08/04 02:54:03;;;;;;;48.97;25.05;;;;;;;21.67;83.74;99012.59;4927685;29;20043;-94
2023/08/04 02:56:29;;;;;;;38.85;25.10;;;;;;;21.70;83.81;99009.84;4928263;29;20066;-95
2023/08/04 02:58:56;;;;;;;37.42;25.40;;;;;;;21.77;83.88;99017.38;4913088;29;20039;-95
2023/08/04 03:01:22;;;;;;;41.25;24.25;;;;;;;21.80;83.66;99009.03;4911338;29;20506;-95
2023/08/04 03:03:48;;;;;;;39.17;24.08;;;;;;;21.77;83.42;99011.81;4904806;29;20040;-93
2023/08/04 03:06:14;;;;;;;49.10;24.40;;;;;;;22.01;83.27;99035.31;4889806;29;20203;-93
2023/08/04 03:08:40;;;;;;;53.92;25.55;;;;;;;21.89;83.33;99007.88;4890164;29;20044;-93
2023/08/04 03:11:10;;;;;;;46.95;24.33;;;;;;;21.80;83.23;98988.78;4896288;29;20139;-94
2023/08/04 03:13:37;;;;;;;40.78;24.10;;;;;;;21.71;83.02;98966.91;4908752;29;20075;-93
2023/08/04 03:16:04;;;;;;;49.40;25.55;;;;;;;21.87;83.25;98991.56;4908857;29;20045;-92
2023/08/04 03:18:30;;;;;;;47.20;25.48;;;;;;;22.07;83.04;99019.78;4909841;29;20086;-92
2023/08/04 03:21:01;;;;;;;41.95;23.65;;;;;;;21.96;83.02;98991.19;4912317;29;20043;-94
2023/08/04 03:23:27;;;;;;;46.55;25.55;;;;;;;22.06;82.92;99009.88;4891778;29;20044;-93
2023/08/04 03:25:53;;;;;;;47.80;24.27;;;;;;;21.87;82.63;98996.34;4920001;29;20048;-93
2023/08/04 03:28:20;;;;;;;45.72;25.13;;;;;;;22.11;82.98;99039.28;4905242;29;20050;-92
2023/08/04 03:30:46;;;;;;;40.20;25.95;;;;;;;21.97;82.56;99024.16;4890097;29;20071;-94
2023/08/04 03:33:12;;;;;;;56.60;26.55;;;;;;;21.74;82.73;98998.72;4926336;29;20074;-91
2023/08/04 03:35:39;;;;;;;45.00;25.45;;;;;;;21.70;82.30;99003.47;4924221;29;20150;-93
2023/08/04 03:38:11;;;;;;;39.55;25.33;;;;;;;22.08;82.69;99062.34;4914152;29;20402;-92
2023/08/04 03:40:37;;;;;;;43.50;26.58;;;;;;;21.74;82.85;99018.19;4911926;29;20070;-93
2023/08/04 03:43:04;;;;;;;35.17;25.33;;;;;;;21.79;83.10;99032.50;4910609;29;20055;-93
2023/08/04 03:45:30;;;;;;;40.33;25.52;;;;;;;21.63;83.07;99003.47;4927525;29;20074;-92
2023/08/04 03:47:56;;;;;;;37.65;24.60;;;;;;;21.91;82.88;99053.56;4911414;29;20404;-94
2023/08/04 03:50:25;;;;;;;36.13;24.23;;;;;;;21.81;82.60;99046.81;4911706;29;20141;-93
2023/08/04 03:52:51;;;;;;;42.55;24.98;;;;;;;21.84;82.38;99047.22;4914465;29;20073;-93
2023/08/04 03:55:18;;;;;;;38.80;24.25;;;;;;;21.89;82.04;99044.06;4931261;29;20134;-92
2023/08/04 03:57:48;;;;;;;37.83;24.17;;;;;;;21.93;82.73;99042.06;4929787;29;20501;-93
2023/08/04 04:00:15;;;;;;;40.10;24.48;;;;;;;21.98;82.49;99047.22;4911138;29;20046;-94
2023/08/04 04:02:41;;;;;;;43.17;24.35;;;;;;;22.08;82.12;99071.47;4918850;29;20035;-92
2023/08/04 04:05:09;;;;;;;35.97;23.77;;;;;;;21.79;82.17;99020.59;4917593;29;20051;-95
2023/08/04 04:07:35;;;;;;;36.28;25.13;;;;;;;21.99;81.99;99038.50;4921097;29;20039;-93
2023/08/04 04:10:01;;;;;;;43.03;25.05;;;;;;;21.93;82.41;99037.28;4915539;29;20054;-94
2023/08/04 04:12:27;;;;;;;41.50;24.58;;;;;;;21.95;82.51;99028.53;4915855;29;20058;-92
2023/08/04 04:14:55;;;;;;;41.25;24.33;;;;;;;22.20;82.50;99048.06;4913890;29;20051;-93
2023/08/04 04:17:22;;;;;;;41.28;23.25;;;;;;;22.14;81.87;99036.50;4897507;29;20039;-92
2023/08/04 04:19:48;;;;;;;33.95;23.23;;;;;;;22.24;81.82;99051.66;4916977;29;20071;-94
2023/08/04 04:22:18;;;;;;;36.35;23.95;;;;;;;22.27;81.09;99048.84;4915264;29;20041;-93
2023/08/04 04:24:54;;;;;;;38.78;23.27;;;;;;;22.39;81.02;99060.81;4931896;29;20043;-93
2023/08/04 04:27:21;;;;;;;;;;;;;;;22.72;80.80;99104.94;4932890;29;20038;-94
2023/08/04 04:29:48;;;;;;;34.90;23.77;;;;;;;22.49;80.78;99071.13;4913670;29;19986;-93
2023/08/04 04:32:35;;;;;;;31.90;24.45;;;;;;;22.50;80.40;99073.50;4912823;29;20056;-92
2023/08/04 04:35:02;;;;;;;30.77;22.00;;;;;;;22.60;80.62;99080.28;4910498;29;20056;-93
2023/08/04 04:37:37;;;;;;;35.80;23.85;;;;;;;22.51;80.32;99049.22;4936572;29;20055;-95
2023/08/04 04:40:04;;;;;;;37.25;24.83;;;;;;;22.58;79.82;99049.22;4940048;28;20043;-92
2023/08/04 04:42:33;;;;;;;40.00;25.33;;;;;;;22.61;79.73;99053.19;4933056;29;20090;-93
2023/08/04 04:45:04;;;;;;;45.20;25.08;;;;;;;23.11;80.12;99115.25;4916518;29;20031;-93
2023/08/04 04:47:31;;;;;;;36.85;24.08;;;;;;;22.93;79.85;99061.53;4911517;29;20044;-92
2023/08/04 04:49:57;;;;;;;38.63;24.40;;;;;;;23.22;79.42;99084.53;4889959;29;20051;-87
2023/08/04 04:52:34;;;;;;;35.75;23.52;;;;;;;23.35;78.98;99099.63;4905790;29;20048;-90
2023/08/04 04:55:00;;;;;;;35.92;23.42;;;;;;;23.38;79.12;99107.19;4920902;29;20040;-87
2023/08/04 04:57:27;;;;;;;46.00;23.75;;;;;;;23.39;78.77;99110.78;4933461;29;20058;-89
2023/08/04 04:59:53;;;;;;;41.28;24.45;;;;;;;23.34;79.53;99103.59;4957403;29;20050;-89
2023/08/04 05:02:19;;;;;;;33.25;23.50;;;;;;;23.47;79.56;99120.69;4950206;29;20127;-88
2023/08/04 05:04:45;;;;;;;40.40;25.08;;;;;;;23.54;79.01;99119.88;4928365;29;20040;-89
2023/08/04 05:07:11;;;;;;;38.08;26.27;;;;;;;23.59;77.56;99120.25;4939093;29;20039;-87
2023/08/04 05:09:38;;;;;;;39.93;25.90;;;;;;;23.64;77.86;99114.25;4942622;29;20036;-90
2023/08/04 05:12:05;;;;;;;36.08;24.08;;;;;;;23.68;78.26;99108.69;4938823;29;20290;-88
2023/08/04 05:14:31;;;;;;;40.33;22.38;;;;;;;23.64;78.05;99080.78;4958264;29;20054;-87
2023/08/04 05:16:57;;;;;;;33.45;23.08;;;;;;;23.75;76.73;99088.31;4941223;29;20038;-88
2023/08/04 05:19:23;;;;;;;34.53;22.15;;;;;;;23.87;76.91;99096.19;4958029;29;20509;-87
2023/08/04 05:21:49;;;;;;;39.55;22.95;;;;;;;23.87;76.98;99077.47;4942956;29;20528;-88
2023/08/04 05:24:16;;;;;;;35.50;23.30;;;;;;;24.01;77.12;99078.59;4957471;29;20044;-87
2023/08/04 05:26:42;;;;;;;36.65;23.33;;;;;;;24.07;77.20;99079.72;4957762;29;20050;-87
2023/08/04 05:29:08;;;;;;;31.23;21.75;;;;;;;24.15;76.92;99073.69;4940876;29;20580;-88
2023/08/04 05:31:34;;;;;;;28.42;22.83;;;;;;;24.21;76.57;99074.03;4957782;29;20181;-90
2023/08/04 05:34:01;;;;;;;35.53;22.90;;;;;;;24.27;75.62;99074.38;4958160;29;20039;-87
2023/08/04 05:36:27;;;;;;;31.88;22.38;;;;;;;24.38;76.03;99084.28;4959772;29;20078;-87
2023/08/04 05:38:53;;;;;;;36.50;21.63;;;;;;;24.34;76.06;99065.97;4957571;29;20043;-87
2023/08/04 05:41:19;;;;;;;34.17;22.20;;;;;;;24.46;76.20;99073.84;4959226;29;20555;-88
2023/08/04 05:43:45;;;;;;;32.28;22.48;;;;;;;24.52;75.36;99080.59;4957642;29;20591;-88
2023/08/04 05:46:15;;;;;;;33.77;21.73;;;;;;;24.59;75.43;99074.94;4957044;29;20046;-87
2023/08/04 05:48:41;;;;;;;35.00;21.42;;;;;;;24.69;75.20;99078.84;4939212;29;20296;-87
2023/08/04 05:51:07;;;;;;;38.90;19.75;;;;;;;24.66;72.35;99067.69;4922587;29;20520;-89
2023/08/04 05:53:33;;;;;;;25.05;20.10;;;;;;;24.79;71.91;99083.53;4943700;29;20179;-87
2023/08/04 05:55:59;;;;;;;30.35;20.67;;;;;;;24.83;71.56;99077.88;4955145;29;20537;-87
2023/08/04 05:58:25;;;;;;;28.65;20.50;;;;;;;24.85;72.41;99069.91;4956536;29;20055;-88
2023/08/04 06:00:51;;;;;;;33.97;20.02;;;;;;;24.97;72.51;99083.34;4923859;29;20528;-87
2023/08/04 06:03:17;;;;;;;;;;;;;;;25.11;71.58;99096.38;4956022;29;20097;-89
2023/08/04 06:05:43;;;;;;;31.08;20.15;;;;;;;24.99;70.46;99080.91;4958659;29;20017;-89
2023/08/04 06:08:10;;;;;;;26.70;19.65;;;;;;;25.18;71.64;99099.13;4959722;29;20063;-89
2023/08/04 06:10:36;;;;;;;45.03;20.85;;;;;;;25.19;72.88;99095.09;4956132;29;20505;-88
2023/08/04 06:13:03;;;;;;;34.47;20.23;;;;;;;25.27;72.32;99101.44;4956370;29;20045;-88
2023/08/04 06:15:28;;;;;;;;;;;;;;;25.40;72.20;99112.88;4955645;29;20087;-87
2023/08/04 06:17:54;;;;;;;32.92;19.38;;;;;;;25.38;71.64;99099.28;4938048;29;20313;-87
2023/08/04 06:20:21;;;;;;;27.48;20.60;;;;;;;25.26;71.32;99088.63;4942190;29;20118;-90
2023/08/04 06:22:50;;;;;;;30.05;20.25;;;;;;;25.34;71.21;99097.75;4939996;29;20047;-90
2023/08/04 06:25:22;;;;;;;25.50;19.67;;;;;;;25.40;70.86;99090.50;4944180;29;20038;-95
2023/08/04 06:28:24;;;;;;;26.73;19.50;;;;;;;25.29;70.29;99073.81;4942240;29;20083;-93
2023/08/04 06:30:59;;;;;;;29.75;20.83;;;;;;;25.71;71.03;99113.66;4907003;29;20044;-89
2023/08/04 06:33:25;;;;;;;36.20;19.60;;;;;;;25.32;70.79;99050.59;4925847;29;20137;-91
2023/08/04 06:35:54;;;;;;;24.08;19.17;;;;;;;25.46;69.67;99078.41;4896827;29;20055;-89
2023/08/04 06:38:20;;;;;;;30.35;19.83;;;;;;;25.60;70.19;99085.81;4955677;28;20058;-92
2023/08/04 06:40:52;;;;;;;28.02;19.52;;;;;;;25.51;69.78;99065.94;4935577;29;20189;-93
2023/08/04 06:43:19;;;;;;;33.90;19.38;;;;;;;25.54;68.52;99077.09;4920948;29;20047;-89
2023/08/04 06:45:45;;;;;;;29.27;18.50;;;;;;;25.71;67.07;99089.25;4935469;29;20050;-91
2023/08/04 06:48:14;;;;;;;25.48;18.10;;;;;;;25.68;67.78;99084.50;4920746;29;20051;-91
2023/08/04 06:50:40;;;;;;;35.03;20.17;;;;;;;25.78;67.78;99088.38;4932225;29;20039;-90
2023/08/04 06:53:06;;;;;;;25.02;18.30;;;;;;;25.67;68.14;99068.94;4960262;29;20528;-91
2023/08/04 06:55:35;;;;;;;28.60;17.98;;;;;;;25.96;66.17;99119.75;4919108;29;20040;-91
2023/08/04 06:58:01;;;;;;;23.23;17.20;;;;;;;25.95;66.00;99118.16;4935360;29;20035;-93
2023/08/04 07:00:27;;;;;;;;;;;;;;;26.08;66.17;99125.97;4915228;29;20075;-89
2023/08/04 07:02:53;;;;;;;;;;;;;;;26.12;66.11;99133.09;4931240;29;19926;-93
2023/08/04 07:05:21;;;;;;;23.55;17.35;;;;;;;26.07;66.53;99116.00;4921131;29;19907;-95
2023/08/04 07:07:54;;;;;;;22.67;16.63;;;;;;;25.76;66.19;99055.19;4956204;29;20131;-91
2023/08/04 07:10:23;;;;;;;;;;;;;;;26.33;65.60;99131.22;4943164;29;20070;-94
2023/08/04 07:12:49;;;;;;;23.48;16.30;;;;;;;26.05;64.90;99087.63;4924862;29;19929;-90
2023/08/04 07:15:15;;;;;;;19.75;16.35;;;;;;;25.79;65.54;99067.53;4908564;29;20039;-91
2023/08/04 07:17:45;;;;;;;22.45;17.20;;;;;;;26.20;65.50;99131.81;4910045;29;20043;-95
2023/08/04 07:20:11;;;;;;;26.10;17.02;;;;;;;26.19;66.92;99096.59;4896548;29;20075;-91
2023/08/04 07:22:38;;;;;;;20.90;16.73;;;;;;;26.22;66.97;99083.72;4917431;29;20058;-90
2023/08/04 07:25:05;;;;;;;26.38;17.10;;;;;;;26.55;65.75;99124.06;4921462;29;20079;-93
2023/08/04 07:27:32;;;;;;;24.48;16.30;;;;;;;26.52;63.58;99110.91;4908674;29;20040;-91
2023/08/04 07:29:58;;;;;;;25.30;16.27;;;;;;;26.53;64.86;99078.84;4924376;29;20046;-91
2023/08/04 07:32:24;;;;;;;23.50;15.88;;;;;;;26.80;63.76;99092.00;4916985;29;20071;-91
2023/08/04 07:34:52;;;;;;;18.60;13.38;;;;;;;26.56;60.83;99064.00;4930069;29;20059;-91
2023/08/04 07:37:18;;;;;;;16.50;12.93;;;;;;;26.75;61.63;99084.84;4897558;29;20589;-92
2023/08/04 07:39:44;;;;;;;17.42;13.00;;;;;;;27.10;61.84;99105.84;4924551;29;20061;-90
2023/08/04 07:42:10;;;;;;;14.77;10.88;;;;;;;26.84;60.75;99073.09;4908773;29;20517;-91
2023/08/04 07:44:38;;;;;;;11.18;10.05;;;;;;;27.15;58.20;99125.03;4921217;29;20044;-91
2023/08/04 07:47:05;;;;;;;11.88;10.05;;;;;;;26.82;57.08;99090.38;4909312;29;20506;-92
2023/08/04 07:50:16;;;;;;;15.57;10.38;;;;;;;26.91;58.61;99127.03;4921907;29;20092;-94
2023/08/04 07:53:36;;;;;;;17.23;10.50;;;;;;;26.79;57.16;99119.25;4870731;29;20055;-93
2023/08/04 07:56:56;;;;;;;14.50;9.43;;;;;;;26.51;57.57;99075.69;4895424;29;20044;-93
2023/08/04 07:59:34;;;;;;;16.85;10.20;;;;;;;26.93;57.75;99146.25;4883576;29;20158;-93
2023/08/04 08:02:20;;;;;;;;;;;;;;;26.86;58.13;99135.19;4907351;29;20441;-91
2023/08/04 08:04:53;;;;;;;;;;;;;;;26.94;58.34;99142.22;4909594;29;19986;-94
2023/08/04 08:07:48;;;;;;;13.32;10.65;;;;;;;26.81;57.73;99110.41;4922597;29;19977;-93
2023/08/04 08:10:20;;;;;;;16.58;11.07;;;;;;;26.88;58.19;99115.88;4903235;29;20155;-93
2023/08/04 08:12:47;;;;;;;16.58;10.25;;;;;;;26.89;57.63;99109.88;4905864;29;20520;-92
2023/08/04 08:15:16;;;;;;;13.50;10.20;;;;;;;27.13;56.82;99123.88;4894870;29;20044;-92
2023/08/04 08:17:42;;;;;;;16.17;10.55;;;;;;;27.09;56.73;99109.09;4904837;29;20079;-92
2023/08/04 08:20:14;;;;;;;10.98;9.45;;;;;;;27.02;56.74;99118.44;4925370;29;20051;-90
2023/08/04 08:22:40;;;;;;;16.17;10.20;;;;;;;26.81;56.81;99102.00;4924032;29;20050;-91
2023/08/04 08:25:26;;;;;;;;;;;;;;;26.99;57.56;99147.34;4964530;28;20043;-92
2023/08/04 08:27:52;;;;;;;;;;;;;;;26.92;57.67;99150.25;4933217;29;19929;-90
2023/08/04 08:30:18;;;;;;;;;;;;;;;27.05;58.64;99156.06;4948728;29;19928;-91
2023/08/04 08:32:44;;;;;;;15.15;9.63;;;;;;;26.77;55.56;99098.47;4916198;29;19923;-93
2023/08/04 08:35:10;;;;;;;13.43;9.73;;;;;;;27.15;55.96;99132.66;4911084;29;20055;-91
2023/08/04 08:37:49;;;;;;;13.88;10.20;;;;;;;26.96;56.43;99080.09;4909564;29;20134;-89
2023/08/04 08:40:17;;;;;;;13.32;10.27;;;;;;;27.23;56.76;99110.88;4898024;29;20160;-89
2023/08/04 08:42:44;;;;;;;11.90;9.65;;;;;;;27.10;56.53;99077.00;4934926;29;20511;-92
2023/08/04 08:45:11;;;;;;;19.30;10.10;;;;;;;27.42;56.19;99135.34;4931236;28;20098;-89
2023/08/04 08:47:38;;;;;;;18.58;10.88;;;;;;;27.36;55.73;99140.66;4946571;29;20121;-90
2023/08/04 08:50:06;;;;;;;15.13;9.77;;;;;;;27.31;56.59;99132.72;4914896;29;20039;-89
2023/08/04 08:52:39;;;;;;;18.13;10.73;;;;;;;26.92;56.56;99096.97;4915415;29;20042;-90
2023/08/04 08:55:10;;;;;;;15.40;10.27;;;;;;;27.06;56.33;99091.09;4947196;29;20047;-90
2023/08/04 08:57:40;;;;;;;16.85;10.23;;;;;;;27.33;57.49;99124.69;4935196;29;20047;-89
2023/08/04 09:00:06;;;;;;;17.77;10.27;;;;;;;27.08;55.25;99080.22;4920383;29;20058;-90
2023/08/04 09:02:36;;;;;;;14.25;10.30;;;;;;;27.58;55.49;99138.22;4965777;29;20452;-92
2023/08/04 09:05:04;;;;;;;12.63;10.10;;;;;;;27.37;54.56;99114.16;4968291;28;20039;-92
2023/08/04 09:07:30;;;;;;;19.33;9.73;;;;;;;27.38;54.97;99141.03;4947888;29;20071;-92
2023/08/04 09:09:57;;;;;;;12.63;10.20;;;;;;;27.24;55.33;99092.78;4900337;29;20110;-91
2023/08/04 09:12:25;;;;;;;13.32;9.02;;;;;;;27.58;54.42;99115.75;4913988;29;20146;-90
2023/08/04 09:14:57;;;;;;;9.70;8.60;;;;;;;27.68;53.59;99127.19;4939050;29;20042;-93
2023/08/04 09:17:35;;;;;;;13.48;8.73;;;;;;;27.45;52.96;99106.41;4932860;29;20050;-92
2023/08/04 09:20:04;;;;;;;13.88;9.63;;;;;;;27.33;52.49;99093.81;4921009;29;20051;-88
2023/08/04 09:22:35;;;;;;;15.48;9.63;;;;;;;27.11;52.64;99084.97;4933540;29;20039;-90
2023/08/04 09:25:03;;;;;;;14.40;9.70;;;;;;;27.25;54.38;99097.19;4918940;29;20035;-89
2023/08/04 09:27:35;;;;;;;10.88;9.43;;;;;;;27.48;55.39;99104.72;4930347;29;20051;-88
2023/08/04 09:30:04;;;;;;;10.68;9.23;;;;;;;27.64;53.52;99116.81;4936117;29;20041;-88
2023/08/04 09:32:31;;;;;;;13.15;9.23;;;;;;;27.87;54.06;99130.00;4929087;29;20051;-90
2023/08/04 09:35:05;;;;;;;13.05;8.73;;;;;;;27.80;50.56;99124.53;4921591;29;20051;-90
2023/08/04 09:37:33;;;;;;;13.68;8.98;;;;;;;27.44;49.87;99099.19;4941744;29;20054;-91
2023/08/04 09:40:03;;;;;;;11.77;7.75;;;;;;;27.83;49.23;99153.78;4940146;29;20043;-89
2023/08/04 09:42:30;;;;;;;10.98;8.23;;;;;;;27.79;50.24;99139.03;4917745;29;20398;-90
2023/08/04 09:44:56;;;;;;;13.20;8.10;;;;;;;27.84;50.58;99133.66;4946904;29;20098;-90
2023/08/04 09:47:24;;;;;;;9.02;8.13;;;;;;;27.92;50.60;99139.16;4939755;29;20126;-89
2023/08/04 09:49:51;;;;;;;13.35;7.55;;;;;;;28.11;49.49;99160.78;4956549;29;20130;-92
2023/08/04 09:52:24;;;;;;;12.25;7.25;;;;;;;28.02;47.16;99138.13;4942408;29;20040;-90
2023/08/04 09:54:53;;;;;;;10.55;7.15;;;;;;;27.92;48.87;99094.19;4919415;29;20070;-87
2023/08/04 09:57:22;;;;;;;17.23;7.00;;;;;;;28.18;49.40;99114.84;4951989;29;20421;-87
2023/08/04 09:59:52;;;;;;;11.07;6.70;;;;;;;28.51;48.53;99157.84;4929175;29;20421;-86
2023/08/04 10:02:19;;;;;;;7.97;6.70;;;;;;;28.43;45.94;99148.03;4943028;29;20059;-88
2023/08/04 10:04:50;;;;;;;8.05;6.90;;;;;;;28.51;46.78;99160.66;4946212;29;20059;-89
2023/08/04 10:07:20;;;;;;;17.25;7.47;;;;;;;28.54;46.49;99157.81;4940332;29;20513;-87
2023/08/04 10:09:49;;;;;;;9.90;7.20;;;;;;;28.46;45.73;99147.94;4937637;29;20055;-86
2023/08/04 10:12:17;;;;;;;6.90;6.13;;;;;;;28.31;45.17;99122.16;4942776;29;20039;-87
2023/08/04 10:14:47;;;;;;;11.80;7.60;;;;;;;28.52;44.13;99151.03;4941710;29;20094;-87
2023/08/04 10:17:13;;;;;;;16.20;6.97;;;;;;;28.26;42.90;99100.19;4925351;29;20414;-89
2023/08/04 10:19:39;;;;;;;13.20;6.18;;;;;;;28.38;44.17;99111.97;4941814;29;20122;-86
2023/08/04 10:22:08;;;;;;;8.30;5.85;;;;;;;28.46;44.77;99117.00;4938627;29;20039;-88
2023/08/04 10:24:36;;;;;;;6.95;5.68;;;;;;;28.71;41.69;99152.97;4927284;29;20039;-87
2023/08/04 10:27:13;;;;;;;7.85;5.65;;;;;;;28.74;40.54;99156.91;4932204;29;20035;-87
2023/08/04 10:29:40;;;;;;;6.30;5.30;;;;;;;28.58;40.96;99135.22;4941394;29;20090;-89
2023/08/04 10:32:09;;;;;;;10.07;6.57;;;;;;;28.64;42.18;99125.00;4953627;29;20418;-87
2023/08/04 10:34:40;;;;;;;6.38;5.10;;;;;;;28.81;40.06;99156.72;4946649;29;20051;-88
2023/08/04 10:37:15;;;;;;;7.00;5.45;;;;;;;28.53;41.71;99101.97;4915826;29;20043;-89
2023/08/04 10:39:48;;;;;;;6.95;5.47;;;;;;;28.90;41.50;99147.66;4955338;29;20898;-89
2023/08/04 10:42:23;;;;;;;9.32;5.68;;;;;;;28.63;39.09;99111.38;4911654;29;20044;-89
2023/08/04 10:45:15;;;;;;;10.07;5.43;;;;;;;28.89;40.67;99148.91;4947464;29;20043;-93
2023/08/04 10:47:46;;;;;;;6.53;5.05;;;;;;;28.87;39.76;99143.69;4935889;29;20127;-86
2023/08/04 10:50:13;;;;;;;10.90;5.15;;;;;;;28.99;40.04;99150.63;4927741;29;20051;-94
2023/08/04 10:52:41;;;;;;;9.60;4.95;;;;;;;28.76;37.87;99115.84;4938985;29;20049;-88
2023/08/04 10:55:11;;;;;;;9.57;5.03;;;;;;;28.69;37.61;99087.91;4960761;29;20051;-90
2023/08/04 10:57:39;;;;;;;9.90;4.75;;;;;;;29.10;39.18;99141.94;4933853;29;20043;-92
2023/08/04 11:00:11;;;;;;;11.23;5.05;;;;;;;29.05;38.72;99126.38;4950945;29;20506;-89
2023/08/04 11:02:37;;;;;;;8.70;5.20;;;;;;;29.09;38.60;99118.63;4951290;29;20040;-88
2023/08/04 11:05:13;;;;;;;10.35;5.32;;;;;;;29.05;36.95;99112.31;4937349;29;20098;-89
2023/08/04 11:07:47;;;;;;;9.63;5.57;;;;;;;29.02;37.82;99110.38;4940809;29;20040;-89
2023/08/04 11:10:13;;;;;;;10.88;5.32;;;;;;;29.11;38.34;99106.94;4942673;29;20040;-91
2023/08/04 11:12:39;;;;;;;10.00;4.95;;;;;;;28.99;38.10;99083.88;4925193;29;20506;-89
2023/08/04 11:15:09;;;;;;;9.73;5.10;;;;;;;29.02;37.25;99099.13;4918330;29;20099;-89
2023/08/04 11:17:42;;;;;;;8.80;5.40;;;;;;;29.15;38.35;99107.63;4920577;29;20098;-90
2023/08/04 11:20:12;;;;;;;10.10;5.97;;;;;;;29.17;38.31;99100.31;4922672;29;20043;-90
2023/08/04 11:22:38;;;;;;;8.05;5.45;;;;;;;29.19;38.89;99109.09;4943644;29;20094;-88
2023/08/04 11:25:07;;;;;;;9.00;5.85;;;;;;;29.32;39.84;99116.81;4939578;29;20090;-87
2023/08/04 11:27:33;;;;;;;14.88;5.40;;;;;;;29.59;40.23;99138.94;4938212;29;20043;-88
2023/08/04 11:29:59;;;;;;;8.15;5.65;;;;;;;29.57;37.91;99119.69;4950765;29;20043;-88
2023/08/04 11:32:26;;;;;;;6.60;5.38;;;;;;;29.69;40.04;99129.44;4960068;29;20043;-87
2023/08/04 11:34:55;;;;;;;7.78;5.88;;;;;;;29.58;38.23;99115.63;4955545;29;20047;-86